Íslenskir flugvellir

Veldu flugvelli í þeirri röð sem þeir eiga að birtast og styddu á hnappinn

Uppfært síðast 29.02.2024 - kl. 21:05

SIGMET síðustu 6 klst.

BIRD SIGMET U02 VALID 292030/292300 BIRK- BIRD REYKJAVIK CTA SEV TURB OBS WI N6346 W03849 - N6418 W05446 - N7009 W05741 - N6615 W03250 - N6346 W03849 FL280/400 STNR NC
BIRD SIGMET U01 VALID 291630/292030 BIRK- BIRD REYKJAVIK CTA SEV TURB OBS WI N6431 W04559 - N6804 W04116 - N6600 W03348 - N6329 W03904 - N6431 W04559 FL300/400 STNR NC

Keflavík

METAR síðustu 3 klst

TímiSkeyti
2024-02-29 21.00METAR BIKF 292100Z 36010KT 9999 FEW027 SCT200 M02/M07 Q0995
2024-02-29 20.30METAR BIKF 292030Z 36012KT CAVOK M02/M06 Q0994
2024-02-29 20.00METAR BIKF 292000Z 36012KT CAVOK M02/M06 Q0994
2024-02-29 19.30METAR BIKF 291930Z 36012KT CAVOK M02/M07 Q0993
2024-02-29 19.00METAR BIKF 291900Z 36012KT CAVOK M02/M07 Q0992
2024-02-29 18.30METAR BIKF 291830Z 36012KT CAVOK M02/M07 Q0991

TAF

Engin TAF skeyti bárust síðustu 24 klst.

Allur vindur er réttvísandi bæði í Metar og frá sjálfvirkum veðurstöðvum




Aðrir tengdir vefir



Þetta vefsvæði byggir á Eplica